sensor_id;sensor_type;location;lat;lon;timestamp;P1;durP1;ratioP1;P2;durP2;ratioP2
15194;SDS011;7698;42.478;23.756;2022-10-16T00:01:03;34.70;;;31.80;;
15194;SDS011;7698;42.478;23.756;2022-10-16T00:03:30;37.53;;;34.40;;
15194;SDS011;7698;42.478;23.756;2022-10-16T00:05:58;39.17;;;35.78;;
15194;SDS011;7698;42.478;23.756;2022-10-16T00:08:25;58.30;;;53.10;;
15194;SDS011;7698;42.478;23.756;2022-10-16T00:10:57;53.05;;;48.78;;
15194;SDS011;7698;42.478;23.756;2022-10-16T00:13:24;56.50;;;51.83;;
15194;SDS011;7698;42.478;23.756;2022-10-16T00:15:51;58.67;;;54.05;;
15194;SDS011;7698;42.478;23.756;2022-10-16T00:18:20;67.72;;;61.72;;
15194;SDS011;7698;42.478;23.756;2022-10-16T00:20:47;60.35;;;55.20;;
15194;SDS011;7698;42.478;23.756;2022-10-16T00:23:13;60.83;;;55.50;;
15194;SDS011;7698;42.478;23.756;2022-10-16T00:25:40;61.65;;;56.53;;
15194;SDS011;7698;42.478;23.756;2022-10-16T00:28:08;58.25;;;53.25;;
15194;SDS011;7698;42.478;23.756;2022-10-16T00:30:37;54.00;;;49.45;;
15194;SDS011;7698;42.478;23.756;2022-10-16T00:33:03;45.97;;;42.28;;
15194;SDS011;7698;42.478;23.756;2022-10-16T00:35:30;24.45;;;22.45;;
15194;SDS011;7698;42.478;23.756;2022-10-16T00:37:57;23.52;;;21.17;;
15194;SDS011;7698;42.478;23.756;2022-10-16T00:40:23;21.73;;;19.95;;
15194;SDS011;7698;42.478;23.756;2022-10-16T00:42:50;21.25;;;19.55;;
15194;SDS011;7698;42.478;23.756;2022-10-16T00:45:18;18.52;;;16.75;;
15194;SDS011;7698;42.478;23.756;2022-10-16T00:47:45;17.55;;;16.05;;
15194;SDS011;7698;42.478;23.756;2022-10-16T00:50:16;14.73;;;13.50;;
15194;SDS011;7698;42.478;23.756;2022-10-16T00:52:44;12.23;;;10.60;;
15194;SDS011;7698;42.478;23.756;2022-10-16T00:55:12;11.00;;;9.93;;
15194;SDS011;7698;42.478;23.756;2022-10-16T00:57:39;9.70;;;8.90;;
15194;SDS011;7698;42.478;23.756;2022-10-16T01:00:07;8.57;;;7.88;;
15194;SDS011;7698;42.478;23.756;2022-10-16T01:02:35;10.25;;;9.25;;
15194;SDS011;7698;42.478;23.756;2022-10-16T01:05:02;11.57;;;10.40;;
15194;SDS011;7698;42.478;23.756;2022-10-16T01:07:31;11.00;;;10.10;;
15194;SDS011;7698;42.478;23.756;2022-10-16T01:10:06;16.05;;;14.68;;
15194;SDS011;7698;42.478;23.756;2022-10-16T01:12:36;15.20;;;13.80;;
15194;SDS011;7698;42.478;23.756;2022-10-16T01:15:06;15.45;;;14.15;;
15194;SDS011;7698;42.478;23.756;2022-10-16T01:17:38;20.90;;;19.00;;
15194;SDS011;7698;42.478;23.756;2022-10-16T01:20:11;23.33;;;21.33;;
15194;SDS011;7698;42.478;23.756;2022-10-16T01:22:39;26.15;;;23.80;;
15194;SDS011;7698;42.478;23.756;2022-10-16T01:25:11;25.25;;;23.15;;
15194;SDS011;7698;42.478;23.756;2022-10-16T01:27:39;28.17;;;25.85;;
15194;SDS011;7698;42.478;23.756;2022-10-16T01:30:09;25.10;;;22.90;;
15194;SDS011;7698;42.478;23.756;2022-10-16T01:32:36;31.17;;;28.15;;
15194;SDS011;7698;42.478;23.756;2022-10-16T01:35:05;28.48;;;26.05;;
15194;SDS011;7698;42.478;23.756;2022-10-16T01:37:35;29.92;;;27.27;;
15194;SDS011;7698;42.478;23.756;2022-10-16T01:40:05;29.95;;;27.27;;
15194;SDS011;7698;42.478;23.756;2022-10-16T01:42:33;26.00;;;23.80;;
15194;SDS011;7698;42.478;23.756;2022-10-16T01:45:02;28.17;;;25.73;;
15194;SDS011;7698;42.478;23.756;2022-10-16T01:47:31;27.02;;;24.73;;
15194;SDS011;7698;42.478;23.756;2022-10-16T01:49:58;27.63;;;25.23;;
15194;SDS011;7698;42.478;23.756;2022-10-16T01:52:26;23.30;;;21.25;;
15194;SDS011;7698;42.478;23.756;2022-10-16T01:54:53;24.85;;;22.67;;
15194;SDS011;7698;42.478;23.756;2022-10-16T01:57:21;25.13;;;23.02;;
15194;SDS011;7698;42.478;23.756;2022-10-16T01:59:51;26.63;;;24.33;;
15194;SDS011;7698;42.478;23.756;2022-10-16T02:02:21;33.28;;;30.38;;
15194;SDS011;7698;42.478;23.756;2022-10-16T02:04:49;30.90;;;27.88;;
15194;SDS011;7698;42.478;23.756;2022-10-16T02:07:17;30.80;;;28.13;;
15194;SDS011;7698;42.478;23.756;2022-10-16T02:09:44;30.98;;;28.38;;
15194;SDS011;7698;42.478;23.756;2022-10-16T02:12:12;36.50;;;33.53;;
15194;SDS011;7698;42.478;23.756;2022-10-16T02:14:40;35.50;;;32.30;;
15194;SDS011;7698;42.478;23.756;2022-10-16T02:17:10;30.75;;;28.02;;
15194;SDS011;7698;42.478;23.756;2022-10-16T02:19:38;27.10;;;24.88;;
15194;SDS011;7698;42.478;23.756;2022-10-16T02:22:06;25.42;;;23.13;;
15194;SDS011;7698;42.478;23.756;2022-10-16T02:24:33;23.20;;;21.17;;
15194;SDS011;7698;42.478;23.756;2022-10-16T02:27:03;24.75;;;22.55;;
15194;SDS011;7698;42.478;23.756;2022-10-16T02:29:30;22.63;;;20.67;;
15194;SDS011;7698;42.478;23.756;2022-10-16T02:31:58;31.20;;;28.48;;
15194;SDS011;7698;42.478;23.756;2022-10-16T02:34:25;52.50;;;47.88;;
15194;SDS011;7698;42.478;23.756;2022-10-16T02:36:55;70.00;;;63.90;;
15194;SDS011;7698;42.478;23.756;2022-10-16T02:39:22;90.50;;;82.32;;
15194;SDS011;7698;42.478;23.756;2022-10-16T02:41:49;95.40;;;87.00;;
15194;SDS011;7698;42.478;23.756;2022-10-16T02:44:15;82.53;;;75.20;;
15194;SDS011;7698;42.478;23.756;2022-10-16T02:46:43;70.80;;;64.60;;
15194;SDS011;7698;42.478;23.756;2022-10-16T02:49:10;62.40;;;57.25;;
15194;SDS011;7698;42.478;23.756;2022-10-16T02:51:36;79.95;;;73.20;;
15194;SDS011;7698;42.478;23.756;2022-10-16T02:54:04;81.10;;;73.97;;
15194;SDS011;7698;42.478;23.756;2022-10-16T02:56:31;75.72;;;69.10;;
15194;SDS011;7698;42.478;23.756;2022-10-16T02:58:57;64.82;;;59.22;;
15194;SDS011;7698;42.478;23.756;2022-10-16T03:01:24;58.00;;;52.88;;
15194;SDS011;7698;42.478;23.756;2022-10-16T03:03:50;50.70;;;46.33;;
15194;SDS011;7698;42.478;23.756;2022-10-16T03:06:17;40.10;;;36.40;;
15194;SDS011;7698;42.478;23.756;2022-10-16T03:08:43;35.80;;;32.58;;
15194;SDS011;7698;42.478;23.756;2022-10-16T03:11:11;31.15;;;28.30;;
15194;SDS011;7698;42.478;23.756;2022-10-16T03:13:38;31.70;;;29.10;;
15194;SDS011;7698;42.478;23.756;2022-10-16T03:16:04;35.88;;;32.88;;
15194;SDS011;7698;42.478;23.756;2022-10-16T03:18:31;37.85;;;34.35;;
15194;SDS011;7698;42.478;23.756;2022-10-16T03:20:57;35.70;;;32.60;;
15194;SDS011;7698;42.478;23.756;2022-10-16T03:23:24;37.28;;;34.13;;
15194;SDS011;7698;42.478;23.756;2022-10-16T03:25:51;37.63;;;34.35;;
15194;SDS011;7698;42.478;23.756;2022-10-16T03:28:19;37.60;;;34.30;;
15194;SDS011;7698;42.478;23.756;2022-10-16T03:30:45;41.83;;;38.05;;
15194;SDS011;7698;42.478;23.756;2022-10-16T03:33:12;43.83;;;39.92;;
15194;SDS011;7698;42.478;23.756;2022-10-16T03:35:38;41.20;;;37.55;;
15194;SDS011;7698;42.478;23.756;2022-10-16T03:38:05;42.78;;;38.80;;
15194;SDS011;7698;42.478;23.756;2022-10-16T03:40:32;36.65;;;33.55;;
15194;SDS011;7698;42.478;23.756;2022-10-16T03:42:58;42.72;;;38.90;;
15194;SDS011;7698;42.478;23.756;2022-10-16T03:45:26;40.53;;;36.95;;
15194;SDS011;7698;42.478;23.756;2022-10-16T03:47:53;40.40;;;36.67;;
15194;SDS011;7698;42.478;23.756;2022-10-16T03:50:19;39.05;;;35.63;;
15194;SDS011;7698;42.478;23.756;2022-10-16T03:52:46;33.40;;;30.50;;
15194;SDS011;7698;42.478;23.756;2022-10-16T03:55:13;30.33;;;27.33;;
15194;SDS011;7698;42.478;23.756;2022-10-16T03:57:39;27.60;;;25.20;;
15194;SDS011;7698;42.478;23.756;2022-10-16T04:00:06;25.08;;;22.88;;
15194;SDS011;7698;42.478;23.756;2022-10-16T04:02:34;25.30;;;23.08;;
15194;SDS011;7698;42.478;23.756;2022-10-16T04:05:01;23.35;;;21.25;;
15194;SDS011;7698;42.478;23.756;2022-10-16T04:07:27;22.17;;;20.05;;
15194;SDS011;7698;42.478;23.756;2022-10-16T04:09:54;22.15;;;20.10;;
15194;SDS011;7698;42.478;23.756;2022-10-16T04:12:22;22.73;;;20.58;;
15194;SDS011;7698;42.478;23.756;2022-10-16T04:14:48;24.67;;;22.38;;
15194;SDS011;7698;42.478;23.756;2022-10-16T04:17:15;24.13;;;21.92;;
15194;SDS011;7698;42.478;23.756;2022-10-16T04:19:43;23.90;;;21.95;;
15194;SDS011;7698;42.478;23.756;2022-10-16T04:22:11;24.42;;;22.17;;
15194;SDS011;7698;42.478;23.756;2022-10-16T04:24:37;22.13;;;19.95;;
15194;SDS011;7698;42.478;23.756;2022-10-16T04:27:04;21.10;;;19.20;;
15194;SDS011;7698;42.478;23.756;2022-10-16T04:29:31;20.83;;;18.88;;
15194;SDS011;7698;42.478;23.756;2022-10-16T04:31:57;17.80;;;16.20;;
15194;SDS011;7698;42.478;23.756;2022-10-16T04:34:24;19.08;;;17.25;;
15194;SDS011;7698;42.478;23.756;2022-10-16T04:36:52;18.63;;;16.73;;
15194;SDS011;7698;42.478;23.756;2022-10-16T04:39:19;19.88;;;17.88;;
15194;SDS011;7698;42.478;23.756;2022-10-16T04:41:45;19.52;;;17.83;;
15194;SDS011;7698;42.478;23.756;2022-10-16T04:44:12;29.50;;;26.40;;
15194;SDS011;7698;42.478;23.756;2022-10-16T04:46:38;34.05;;;30.45;;
15194;SDS011;7698;42.478;23.756;2022-10-16T04:49:05;37.70;;;33.83;;
15194;SDS011;7698;42.478;23.756;2022-10-16T04:51:32;30.38;;;27.33;;
15194;SDS011;7698;42.478;23.756;2022-10-16T04:54:00;27.90;;;25.00;;
15194;SDS011;7698;42.478;23.756;2022-10-16T04:56:27;26.35;;;23.75;;
15194;SDS011;7698;42.478;23.756;2022-10-16T04:58:53;25.15;;;22.63;;
15194;SDS011;7698;42.478;23.756;2022-10-16T05:01:20;23.33;;;20.85;;
15194;SDS011;7698;42.478;23.756;2022-10-16T05:03:46;19.63;;;17.70;;
15194;SDS011;7698;42.478;23.756;2022-10-16T05:06:13;19.13;;;17.33;;
15194;SDS011;7698;42.478;23.756;2022-10-16T05:08:40;17.27;;;15.70;;
15194;SDS011;7698;42.478;23.756;2022-10-16T05:11:08;17.35;;;15.75;;
15194;SDS011;7698;42.478;23.756;2022-10-16T05:13:34;15.77;;;14.32;;
15194;SDS011;7698;42.478;23.756;2022-10-16T05:16:01;12.27;;;11.18;;
15194;SDS011;7698;42.478;23.756;2022-10-16T05:18:27;13.48;;;12.05;;
15194;SDS011;7698;42.478;23.756;2022-10-16T05:20:54;11.32;;;10.32;;
15194;SDS011;7698;42.478;23.756;2022-10-16T05:23:20;10.70;;;9.73;;
15194;SDS011;7698;42.478;23.756;2022-10-16T05:25:51;11.23;;;10.23;;
15194;SDS011;7698;42.478;23.756;2022-10-16T05:28:19;9.52;;;8.65;;
15194;SDS011;7698;42.478;23.756;2022-10-16T05:30:46;10.73;;;9.73;;
15194;SDS011;7698;42.478;23.756;2022-10-16T05:33:13;11.80;;;10.60;;
15194;SDS011;7698;42.478;23.756;2022-10-16T05:35:39;17.92;;;16.13;;
15194;SDS011;7698;42.478;23.756;2022-10-16T05:38:06;16.25;;;14.68;;
15194;SDS011;7698;42.478;23.756;2022-10-16T05:40:32;18.15;;;16.65;;
15194;SDS011;7698;42.478;23.756;2022-10-16T05:42:59;20.30;;;18.35;;
15194;SDS011;7698;42.478;23.756;2022-10-16T05:45:27;21.55;;;19.25;;
15194;SDS011;7698;42.478;23.756;2022-10-16T05:47:53;19.13;;;17.58;;
15194;SDS011;7698;42.478;23.756;2022-10-16T05:50:20;21.05;;;19.35;;
15194;SDS011;7698;42.478;23.756;2022-10-16T05:52:46;15.82;;;14.50;;
15194;SDS011;7698;42.478;23.756;2022-10-16T05:55:13;12.57;;;11.18;;
15194;SDS011;7698;42.478;23.756;2022-10-16T05:57:40;9.60;;;8.70;;
15194;SDS011;7698;42.478;23.756;2022-10-16T06:00:07;8.60;;;7.72;;
15194;SDS011;7698;42.478;23.756;2022-10-16T06:02:35;8.48;;;7.78;;
15194;SDS011;7698;42.478;23.756;2022-10-16T06:05:02;8.65;;;7.78;;
15194;SDS011;7698;42.478;23.756;2022-10-16T06:07:29;12.05;;;10.75;;
15194;SDS011;7698;42.478;23.756;2022-10-16T06:09:55;11.45;;;10.27;;
15194;SDS011;7698;42.478;23.756;2022-10-16T06:12:22;6.28;;;5.43;;
15194;SDS011;7698;42.478;23.756;2022-10-16T06:14:49;7.65;;;5.90;;
15194;SDS011;7698;42.478;23.756;2022-10-16T06:17:15;9.55;;;6.53;;
15194;SDS011;7698;42.478;23.756;2022-10-16T06:19:43;6.43;;;5.82;;
15194;SDS011;7698;42.478;23.756;2022-10-16T06:22:10;6.45;;;5.88;;
15194;SDS011;7698;42.478;23.756;2022-10-16T06:24:37;6.10;;;5.60;;
15194;SDS011;7698;42.478;23.756;2022-10-16T06:27:04;4.88;;;4.43;;
15194;SDS011;7698;42.478;23.756;2022-10-16T06:29:31;6.18;;;5.43;;
15194;SDS011;7698;42.478;23.756;2022-10-16T06:31:57;5.30;;;4.78;;
15194;SDS011;7698;42.478;23.756;2022-10-16T06:34:24;5.82;;;4.97;;
15194;SDS011;7698;42.478;23.756;2022-10-16T06:36:52;5.70;;;5.20;;
15194;SDS011;7698;42.478;23.756;2022-10-16T06:39:19;4.78;;;4.38;;
15194;SDS011;7698;42.478;23.756;2022-10-16T06:41:45;4.75;;;4.22;;
15194;SDS011;7698;42.478;23.756;2022-10-16T06:44:12;5.28;;;4.35;;
15194;SDS011;7698;42.478;23.756;2022-10-16T06:46:39;5.00;;;4.68;;
15194;SDS011;7698;42.478;23.756;2022-10-16T06:49:05;5.03;;;4.63;;
15194;SDS011;7698;42.478;23.756;2022-10-16T06:51:32;5.28;;;4.78;;
15194;SDS011;7698;42.478;23.756;2022-10-16T06:54:02;9.18;;;5.07;;
15194;SDS011;7698;42.478;23.756;2022-10-16T06:56:28;5.20;;;4.78;;
15194;SDS011;7698;42.478;23.756;2022-10-16T06:58:55;6.13;;;4.35;;
15194;SDS011;7698;42.478;23.756;2022-10-16T07:01:23;7.53;;;4.57;;
15194;SDS011;7698;42.478;23.756;2022-10-16T07:03:49;7.13;;;5.00;;
15194;SDS011;7698;42.478;23.756;2022-10-16T07:06:16;6.43;;;5.82;;
15194;SDS011;7698;42.478;23.756;2022-10-16T07:08:44;8.27;;;5.13;;
15194;SDS011;7698;42.478;23.756;2022-10-16T07:11:13;6.55;;;5.90;;
15194;SDS011;7698;42.478;23.756;2022-10-16T07:13:40;6.75;;;6.05;;
15194;SDS011;7698;42.478;23.756;2022-10-16T07:16:08;7.47;;;6.50;;
15194;SDS011;7698;42.478;23.756;2022-10-16T07:18:35;8.00;;;6.70;;
15194;SDS011;7698;42.478;23.756;2022-10-16T07:21:04;5.85;;;4.82;;
15194;SDS011;7698;42.478;23.756;2022-10-16T07:23:31;5.72;;;5.22;;
15194;SDS011;7698;42.478;23.756;2022-10-16T07:25:57;5.32;;;4.43;;
15194;SDS011;7698;42.478;23.756;2022-10-16T07:28:25;6.22;;;5.57;;
15194;SDS011;7698;42.478;23.756;2022-10-16T07:30:52;5.72;;;5.22;;
15194;SDS011;7698;42.478;23.756;2022-10-16T07:33:19;5.68;;;5.28;;
15194;SDS011;7698;42.478;23.756;2022-10-16T07:35:49;5.32;;;4.80;;
15194;SDS011;7698;42.478;23.756;2022-10-16T07:38:16;4.15;;;3.75;;
15194;SDS011;7698;42.478;23.756;2022-10-16T07:40:43;5.85;;;5.10;;
15194;SDS011;7698;42.478;23.756;2022-10-16T07:43:09;5.88;;;5.38;;
15194;SDS011;7698;42.478;23.756;2022-10-16T07:45:38;5.80;;;5.30;;
15194;SDS011;7698;42.478;23.756;2022-10-16T07:48:04;7.25;;;6.65;;
15194;SDS011;7698;42.478;23.756;2022-10-16T07:50:31;9.15;;;7.43;;
15194;SDS011;7698;42.478;23.756;2022-10-16T07:52:58;7.38;;;6.07;;
15194;SDS011;7698;42.478;23.756;2022-10-16T07:55:24;6.38;;;4.75;;
15194;SDS011;7698;42.478;23.756;2022-10-16T07:57:51;5.68;;;5.00;;
15194;SDS011;7698;42.478;23.756;2022-10-16T08:00:18;5.25;;;4.85;;
15194;SDS011;7698;42.478;23.756;2022-10-16T08:02:46;5.30;;;4.80;;
15194;SDS011;7698;42.478;23.756;2022-10-16T08:05:13;6.07;;;5.10;;
15194;SDS011;7698;42.478;23.756;2022-10-16T08:07:39;7.85;;;4.53;;
15194;SDS011;7698;42.478;23.756;2022-10-16T08:10:06;5.90;;;4.78;;
15194;SDS011;7698;42.478;23.756;2022-10-16T08:12:33;6.78;;;5.07;;
15194;SDS011;7698;42.478;23.756;2022-10-16T08:14:59;7.82;;;4.57;;
15194;SDS011;7698;42.478;23.756;2022-10-16T08:17:26;5.07;;;4.55;;
15194;SDS011;7698;42.478;23.756;2022-10-16T08:19:54;6.00;;;5.45;;
15194;SDS011;7698;42.478;23.756;2022-10-16T08:22:21;13.63;;;12.30;;
15194;SDS011;7698;42.478;23.756;2022-10-16T08:24:48;20.40;;;18.23;;
15194;SDS011;7698;42.478;23.756;2022-10-16T08:27:14;6.03;;;5.43;;
15194;SDS011;7698;42.478;23.756;2022-10-16T08:29:41;5.65;;;4.50;;
15194;SDS011;7698;42.478;23.756;2022-10-16T08:32:08;35.58;;;32.38;;
15194;SDS011;7698;42.478;23.756;2022-10-16T08:34:34;5.40;;;4.90;;
15194;SDS011;7698;42.478;23.756;2022-10-16T08:37:02;6.82;;;4.90;;
15194;SDS011;7698;42.478;23.756;2022-10-16T08:39:29;4.95;;;4.50;;
15194;SDS011;7698;42.478;23.756;2022-10-16T08:45:08;5.95;;;4.18;;
15194;SDS011;7698;42.478;23.756;2022-10-16T08:47:43;4.55;;;4.15;;
15194;SDS011;7698;42.478;23.756;2022-10-16T08:50:12;4.60;;;4.20;;
15194;SDS011;7698;42.478;23.756;2022-10-16T08:52:41;5.40;;;4.38;;
15194;SDS011;7698;42.478;23.756;2022-10-16T08:55:10;5.25;;;4.78;;
15194;SDS011;7698;42.478;23.756;2022-10-16T08:57:43;4.68;;;3.75;;
15194;SDS011;7698;42.478;23.756;2022-10-16T09:00:11;4.30;;;3.90;;
15194;SDS011;7698;42.478;23.756;2022-10-16T09:02:40;3.83;;;3.30;;
15194;SDS011;7698;42.478;23.756;2022-10-16T09:05:16;4.65;;;3.35;;
15194;SDS011;7698;42.478;23.756;2022-10-16T09:07:48;3.80;;;3.50;;
15194;SDS011;7698;42.478;23.756;2022-10-16T09:10:21;4.38;;;3.50;;
15194;SDS011;7698;42.478;23.756;2022-10-16T09:12:52;3.45;;;3.15;;
15194;SDS011;7698;42.478;23.756;2022-10-16T09:15:22;4.15;;;3.47;;
15194;SDS011;7698;42.478;23.756;2022-10-16T09:17:52;4.18;;;3.13;;
15194;SDS011;7698;42.478;23.756;2022-10-16T09:20:23;4.00;;;3.55;;
15194;SDS011;7698;42.478;23.756;2022-10-16T09:22:53;3.38;;;3.08;;
15194;SDS011;7698;42.478;23.756;2022-10-16T09:25:21;3.33;;;3.00;;
15194;SDS011;7698;42.478;23.756;2022-10-16T09:27:48;5.25;;;4.55;;
15194;SDS011;7698;42.478;23.756;2022-10-16T09:30:16;3.85;;;3.55;;
15194;SDS011;7698;42.478;23.756;2022-10-16T09:32:43;3.95;;;3.55;;
15194;SDS011;7698;42.478;23.756;2022-10-16T09:35:13;12.10;;;10.65;;
15194;SDS011;7698;42.478;23.756;2022-10-16T09:37:40;10.90;;;9.80;;
15194;SDS011;7698;42.478;23.756;2022-10-16T09:40:13;4.65;;;4.25;;
15194;SDS011;7698;42.478;23.756;2022-10-16T09:42:40;5.82;;;4.20;;
15194;SDS011;7698;42.478;23.756;2022-10-16T09:45:19;4.45;;;4.05;;
15194;SDS011;7698;42.478;23.756;2022-10-16T09:47:46;8.80;;;7.93;;
15194;SDS011;7698;42.478;23.756;2022-10-16T09:50:19;23.27;;;21.20;;
15194;SDS011;7698;42.478;23.756;2022-10-16T09:52:46;6.00;;;5.50;;
15194;SDS011;7698;42.478;23.756;2022-10-16T09:55:16;4.07;;;3.67;;
15194;SDS011;7698;42.478;23.756;2022-10-16T09:57:48;3.83;;;3.53;;
15194;SDS011;7698;42.478;23.756;2022-10-16T10:00:16;3.33;;;3.03;;
15194;SDS011;7698;42.478;23.756;2022-10-16T10:02:42;4.25;;;3.85;;
15194;SDS011;7698;42.478;23.756;2022-10-16T10:05:17;3.85;;;3.42;;
15194;SDS011;7698;42.478;23.756;2022-10-16T10:07:44;6.88;;;4.43;;
15194;SDS011;7698;42.478;23.756;2022-10-16T10:10:19;5.18;;;4.15;;
15194;SDS011;7698;42.478;23.756;2022-10-16T10:12:46;4.03;;;3.63;;
15194;SDS011;7698;42.478;23.756;2022-10-16T10:15:13;4.20;;;3.25;;
15194;SDS011;7698;42.478;23.756;2022-10-16T10:17:46;3.53;;;3.22;;
15194;SDS011;7698;42.478;23.756;2022-10-16T10:20:18;4.07;;;3.38;;
15194;SDS011;7698;42.478;23.756;2022-10-16T10:22:48;3.47;;;3.15;;
15194;SDS011;7698;42.478;23.756;2022-10-16T10:25:15;3.65;;;3.35;;
15194;SDS011;7698;42.478;23.756;2022-10-16T10:27:50;3.90;;;3.10;;
15194;SDS011;7698;42.478;23.756;2022-10-16T10:30:20;5.70;;;2.80;;
15194;SDS011;7698;42.478;23.756;2022-10-16T10:32:52;2.83;;;2.58;;
15194;SDS011;7698;42.478;23.756;2022-10-16T10:35:22;3.80;;;3.05;;
15194;SDS011;7698;42.478;23.756;2022-10-16T10:37:55;3.13;;;2.83;;
15194;SDS011;7698;42.478;23.756;2022-10-16T10:40:29;2.95;;;2.75;;
15194;SDS011;7698;42.478;23.756;2022-10-16T10:42:59;4.50;;;3.10;;
15194;SDS011;7698;42.478;23.756;2022-10-16T10:45:28;2.70;;;2.50;;
15194;SDS011;7698;42.478;23.756;2022-10-16T10:48:02;17.63;;;15.63;;
15194;SDS011;7698;42.478;23.756;2022-10-16T10:50:34;4.45;;;4.15;;
15194;SDS011;7698;42.478;23.756;2022-10-16T10:53:05;4.28;;;3.65;;
15194;SDS011;7698;42.478;23.756;2022-10-16T10:55:36;5.20;;;3.28;;
15194;SDS011;7698;42.478;23.756;2022-10-16T10:58:10;4.78;;;2.97;;
15194;SDS011;7698;42.478;23.756;2022-10-16T11:00:42;7.65;;;6.97;;
15194;SDS011;7698;42.478;23.756;2022-10-16T11:03:13;4.70;;;4.30;;
15194;SDS011;7698;42.478;23.756;2022-10-16T11:05:46;3.40;;;3.10;;
15194;SDS011;7698;42.478;23.756;2022-10-16T11:08:16;3.38;;;3.03;;
15194;SDS011;7698;42.478;23.756;2022-10-16T11:10:47;3.00;;;2.70;;
15194;SDS011;7698;42.478;23.756;2022-10-16T11:13:19;9.88;;;7.50;;
15194;SDS011;7698;42.478;23.756;2022-10-16T11:15:48;6.90;;;6.28;;
15194;SDS011;7698;42.478;23.756;2022-10-16T11:18:16;11.40;;;10.40;;
15194;SDS011;7698;42.478;23.756;2022-10-16T11:20:47;4.78;;;3.80;;
15194;SDS011;7698;42.478;23.756;2022-10-16T11:23:16;4.30;;;3.97;;
15194;SDS011;7698;42.478;23.756;2022-10-16T11:25:44;2.67;;;2.47;;
15194;SDS011;7698;42.478;23.756;2022-10-16T11:28:12;3.63;;;2.78;;
15194;SDS011;7698;42.478;23.756;2022-10-16T11:30:43;3.53;;;2.63;;
15194;SDS011;7698;42.478;23.756;2022-10-16T11:33:19;3.53;;;2.55;;
15194;SDS011;7698;42.478;23.756;2022-10-16T11:35:49;3.55;;;2.75;;
15194;SDS011;7698;42.478;23.756;2022-10-16T11:38:20;3.95;;;2.83;;
15194;SDS011;7698;42.478;23.756;2022-10-16T11:40:52;4.07;;;2.60;;
15194;SDS011;7698;42.478;23.756;2022-10-16T11:43:24;2.47;;;2.28;;
15194;SDS011;7698;42.478;23.756;2022-10-16T11:45:53;6.07;;;5.47;;
15194;SDS011;7698;42.478;23.756;2022-10-16T11:48:23;29.02;;;26.30;;
15194;SDS011;7698;42.478;23.756;2022-10-16T11:50:53;6.43;;;5.82;;
15194;SDS011;7698;42.478;23.756;2022-10-16T11:53:23;8.10;;;7.15;;
15194;SDS011;7698;42.478;23.756;2022-10-16T11:55:50;43.55;;;39.60;;
15194;SDS011;7698;42.478;23.756;2022-10-16T11:58:20;5.03;;;4.63;;
15194;SDS011;7698;42.478;23.756;2022-10-16T12:00:53;6.03;;;3.30;;
15194;SDS011;7698;42.478;23.756;2022-10-16T12:03:22;2.72;;;2.53;;
15194;SDS011;7698;42.478;23.756;2022-10-16T12:05:55;3.45;;;2.80;;
15194;SDS011;7698;42.478;23.756;2022-10-16T12:08:24;11.57;;;10.48;;
15194;SDS011;7698;42.478;23.756;2022-10-16T12:10:51;4.38;;;3.17;;
15194;SDS011;7698;42.478;23.756;2022-10-16T12:13:31;20.42;;;17.58;;
15194;SDS011;7698;42.478;23.756;2022-10-16T12:16:07;3.92;;;3.63;;
15194;SDS011;7698;42.478;23.756;2022-10-16T12:18:44;3.28;;;2.80;;
15194;SDS011;7698;42.478;23.756;2022-10-16T12:21:11;3.53;;;3.22;;
15194;SDS011;7698;42.478;23.756;2022-10-16T12:23:46;3.60;;;2.55;;
15194;SDS011;7698;42.478;23.756;2022-10-16T12:26:13;2.60;;;2.40;;
15194;SDS011;7698;42.478;23.756;2022-10-16T12:28:40;2.70;;;2.50;;
15194;SDS011;7698;42.478;23.756;2022-10-16T12:31:08;3.92;;;2.50;;
15194;SDS011;7698;42.478;23.756;2022-10-16T12:33:37;3.25;;;2.67;;
15194;SDS011;7698;42.478;23.756;2022-10-16T12:36:09;2.60;;;2.40;;
15194;SDS011;7698;42.478;23.756;2022-10-16T12:38:37;4.85;;;3.05;;
15194;SDS011;7698;42.478;23.756;2022-10-16T12:41:05;3.00;;;2.22;;
15194;SDS011;7698;42.478;23.756;2022-10-16T12:43:37;3.88;;;2.47;;
15194;SDS011;7698;42.478;23.756;2022-10-16T12:46:05;2.78;;;2.38;;
15194;SDS011;7698;42.478;23.756;2022-10-16T12:48:46;3.70;;;2.40;;
15194;SDS011;7698;42.478;23.756;2022-10-16T12:51:21;3.30;;;2.63;;
15194;SDS011;7698;42.478;23.756;2022-10-16T12:53:57;2.83;;;2.50;;
15194;SDS011;7698;42.478;23.756;2022-10-16T12:56:24;3.55;;;2.35;;
15194;SDS011;7698;42.478;23.756;2022-10-16T12:58:57;3.15;;;2.85;;
15194;SDS011;7698;42.478;23.756;2022-10-16T13:01:39;3.75;;;2.65;;
15194;SDS011;7698;42.478;23.756;2022-10-16T13:06:55;2.95;;;2.53;;
15194;SDS011;7698;42.478;23.756;2022-10-16T13:09:35;2.30;;;2.10;;
15194;SDS011;7698;42.478;23.756;2022-10-16T13:12:13;3.92;;;2.17;;
15194;SDS011;7698;42.478;23.756;2022-10-16T13:14:46;2.58;;;2.00;;
15194;SDS011;7698;42.478;23.756;2022-10-16T13:17:17;2.42;;;2.20;;
15194;SDS011;7698;42.478;23.756;2022-10-16T13:19:47;2.67;;;2.17;;
15194;SDS011;7698;42.478;23.756;2022-10-16T13:22:21;3.55;;;2.30;;
15194;SDS011;7698;42.478;23.756;2022-10-16T13:24:53;4.72;;;2.30;;
15194;SDS011;7698;42.478;23.756;2022-10-16T13:27:25;4.25;;;2.55;;
15194;SDS011;7698;42.478;23.756;2022-10-16T13:30:00;2.60;;;2.30;;
15194;SDS011;7698;42.478;23.756;2022-10-16T13:32:28;2.75;;;2.13;;
15194;SDS011;7698;42.478;23.756;2022-10-16T13:34:55;2.30;;;2.10;;
15194;SDS011;7698;42.478;23.756;2022-10-16T13:37:23;3.33;;;2.15;;
15194;SDS011;7698;42.478;23.756;2022-10-16T13:39:50;1.92;;;1.70;;
15194;SDS011;7698;42.478;23.756;2022-10-16T13:42:20;2.33;;;2.10;;
15194;SDS011;7698;42.478;23.756;2022-10-16T13:44:48;2.42;;;1.63;;
15194;SDS011;7698;42.478;23.756;2022-10-16T13:47:16;2.08;;;1.80;;
15194;SDS011;7698;42.478;23.756;2022-10-16T13:49:43;2.25;;;1.80;;
15194;SDS011;7698;42.478;23.756;2022-10-16T13:52:15;2.50;;;2.00;;
15194;SDS011;7698;42.478;23.756;2022-10-16T13:54:44;4.50;;;2.42;;
15194;SDS011;7698;42.478;23.756;2022-10-16T13:57:12;2.65;;;2.45;;
15194;SDS011;7698;42.478;23.756;2022-10-16T13:59:39;2.40;;;2.20;;
15194;SDS011;7698;42.478;23.756;2022-10-16T14:02:08;3.13;;;2.17;;
15194;SDS011;7698;42.478;23.756;2022-10-16T14:04:41;3.35;;;2.40;;
15194;SDS011;7698;42.478;23.756;2022-10-16T14:07:11;3.42;;;2.65;;
15194;SDS011;7698;42.478;23.756;2022-10-16T14:09:39;3.80;;;2.60;;
15194;SDS011;7698;42.478;23.756;2022-10-16T14:12:09;2.80;;;2.40;;
15194;SDS011;7698;42.478;23.756;2022-10-16T14:14:40;2.63;;;2.42;;
15194;SDS011;7698;42.478;23.756;2022-10-16T14:17:12;3.63;;;2.42;;
15194;SDS011;7698;42.478;23.756;2022-10-16T14:19:39;2.33;;;2.13;;
15194;SDS011;7698;42.478;23.756;2022-10-16T14:22:26;3.40;;;2.42;;
15194;SDS011;7698;42.478;23.756;2022-10-16T14:24:53;2.47;;;2.22;;
15194;SDS011;7698;42.478;23.756;2022-10-16T14:27:28;2.38;;;2.10;;
15194;SDS011;7698;42.478;23.756;2022-10-16T14:32:53;2.50;;;2.30;;
15194;SDS011;7698;42.478;23.756;2022-10-16T14:35:23;2.83;;;2.47;;
15194;SDS011;7698;42.478;23.756;2022-10-16T14:37:51;3.42;;;2.10;;
15194;SDS011;7698;42.478;23.756;2022-10-16T14:40:18;2.50;;;2.30;;
15194;SDS011;7698;42.478;23.756;2022-10-16T14:42:46;3.63;;;2.60;;
15194;SDS011;7698;42.478;23.756;2022-10-16T14:45:14;3.65;;;2.60;;
15194;SDS011;7698;42.478;23.756;2022-10-16T14:47:47;2.88;;;2.08;;
15194;SDS011;7698;42.478;23.756;2022-10-16T14:50:14;4.15;;;3.00;;
15194;SDS011;7698;42.478;23.756;2022-10-16T14:52:40;2.83;;;2.33;;